KALW

Walla Walla Regional Airport

Airport
ICAO code
KALW
Summary
ICAO Region
NAM
ICAO Territory
Location

Walla Walla, Washington,

Coordinates
46° 5' 41" N , 118° 17' 16" W
KCC
Airport WX
Mountain Waves
Metar
KALW 221753Z VRB06KT 10SM CLR 28/08 A2986 RMK AO2 SLP102 T02780078 10278 20167 58005

Description

Walla Walla Regional Airport is a use public airport located 5 km northeast of the central business district of Walla Walla, a city in Walla Walla County, Washington.

Climatology

Semi-arid climate (Köppen climate classification BSk) - Little precipitation, hot summers and cold winters, sometimes with large changes in temperature in a 24 hour period.

Airport map

Aerial View

SKYbrary Partners:

Safety knowledge contributed by: